Time;durP1;ratioP1;P1;durP2;ratioP2;P2;SDS_P1;SDS_P2;PMS_P1;PMS_P2;Temp;Humidity;BMP_temperature;BMP_pressure;BME280_temperature;BME280_humidity;BME280_pressure;Samples;Min_cycle;Max_cycle;Signal;HPM_P1;HPM_P2
2022/04/20 00:01:08;;;;;;;13.60;12.80;;;8.50;10.10;;;;;;5032983;28;20186;-70
2022/04/20 00:03:34;;;;;;;13.83;13.10;;;8.50;10.30;;;;;;5034170;28;20190;-70
2022/04/20 00:05:59;;;;;;;15.20;14.40;;;8.40;10.40;;;;;;5032848;28;20215;-72
2022/04/20 00:08:25;;;;;;;14.93;14.13;;;8.50;10.90;;;;;;5033724;28;20195;-70
2022/04/20 00:10:50;;;;;;;14.40;13.70;;;8.40;11.00;;;;;;5034029;28;20189;-70
2022/04/20 00:13:16;;;;;;;14.23;13.43;;;8.20;11.30;;;;;;5049262;28;20301;-72
2022/04/20 00:15:41;;;;;;;13.53;12.83;;;8.30;11.50;;;;;;5032602;28;20556;-72
2022/04/20 00:18:07;;;;;;;13.93;13.23;;;8.20;11.40;;;;;;5032802;28;20202;-71
2022/04/20 00:20:32;;;;;;;13.90;13.20;;;8.10;11.80;;;;;;5033782;28;20178;-70
2022/04/20 00:22:58;;;;;;;13.50;12.90;;;8.10;11.80;;;;;;5032311;28;20675;-72
2022/04/20 00:25:23;;;;;;;14.23;13.43;;;8.10;11.70;;;;;;5033930;28;20278;-70
2022/04/20 00:27:49;;;;;;;15.20;14.30;;;8.00;12.00;;;;;;5032308;28;20553;-70
2022/04/20 00:30:15;;;;;;;13.97;13.27;;;7.90;12.30;;;;;;5033615;28;20179;-71
2022/04/20 00:32:41;;;;;;;14.93;14.10;;;8.00;12.10;;;;;;5050654;28;20189;-72
2022/04/20 00:35:08;;;;;;;14.53;13.73;;;7.90;12.10;;;;;;5053563;28;20230;-71
2022/04/20 00:37:34;;;;;;;13.40;12.80;;;7.80;12.10;;;;;;5053285;28;20178;-71
2022/04/20 00:40:02;;;;;;;14.77;13.43;;;7.80;12.40;;;;;;5053350;28;20902;-72
2022/04/20 00:42:28;;;;;;;14.18;13.32;;;7.80;12.20;;;;;;5053313;28;20420;-72
2022/04/20 00:44:54;;;;;;;14.40;13.30;;;7.70;12.30;;;;;;5053448;28;20186;-72
2022/04/20 00:47:20;;;;;;;14.90;14.00;;;7.60;12.30;;;;;;5052964;28;20855;-71
2022/04/20 00:49:47;;;;;;;13.60;12.80;;;7.60;12.00;;;;;;5053202;28;20197;-71
2022/04/20 00:52:13;;;;;;;13.77;13.02;;;7.60;11.80;;;;;;5053623;28;20444;-73
2022/04/20 00:54:39;;;;;;;13.52;12.82;;;7.50;11.90;;;;;;5051906;28;20176;-72
2022/04/20 00:57:05;;;;;;;13.33;12.60;;;7.30;12.20;;;;;;5051587;28;20268;-73
2022/04/20 00:59:32;;;;;;;12.57;11.90;;;7.30;12.20;;;;;;5033092;28;20913;-71
2022/04/20 01:01:59;;;;;;;13.00;12.30;;;7.30;12.20;;;;;;5031886;28;20180;-71
2022/04/20 01:04:25;;;;;;;14.00;13.20;;;7.30;12.20;;;;;;5033144;28;20196;-73
2022/04/20 01:06:51;;;;;;;14.23;13.43;;;7.20;12.30;;;;;;5031452;28;20826;-70
2022/04/20 01:09:17;;;;;;;14.03;13.13;;;7.20;11.80;;;;;;5032688;28;20761;-70
2022/04/20 01:11:43;;;;;;;13.73;13.02;;;7.20;11.90;;;;;;5032954;28;20178;-70
2022/04/20 01:14:09;;;;;;;13.90;13.27;;;7.20;12.00;;;;;;5032887;28;20176;-72
2022/04/20 01:16:35;;;;;;;12.85;12.35;;;7.10;11.30;;;;;;5032863;28;20672;-69
2022/04/20 01:19:01;;;;;;;12.40;11.80;;;7.20;10.80;;;;;;5032528;28;20198;-69
2022/04/20 01:21:27;;;;;;;13.52;12.93;;;7.30;10.50;;;;;;5032778;28;20220;-70
2022/04/20 01:23:53;;;;;;;14.80;13.90;;;7.30;10.40;;;;;;5032692;28;20181;-69
2022/04/20 01:26:19;;;;;;;14.27;13.20;;;7.20;10.50;;;;;;5032670;28;20468;-69
2022/04/20 01:28:46;;;;;;;13.87;13.07;;;7.20;10.10;;;;;;5031420;28;20436;-70
2022/04/20 01:31:16;;;;;;;14.25;13.45;;;7.10;10.30;;;;;;5032244;28;20186;-71
2022/04/20 01:33:43;;;;;;;13.00;12.30;;;7.20;10.20;;;;;;5031368;28;20258;-70
2022/04/20 01:36:10;;;;;;;12.38;11.77;;;7.20;10.30;;;;;;5032393;28;20186;-70
2022/04/20 01:38:37;;;;;;;13.02;12.43;;;7.20;10.00;;;;;;5030712;28;20228;-70
2022/04/20 01:41:02;;;;;;;14.23;13.50;;;7.20;10.10;;;;;;5032207;28;20177;-72
2022/04/20 01:43:28;;;;;;;13.70;12.90;;;7.20;10.00;;;;;;5032121;28;20416;-70
2022/04/20 01:45:53;;;;;;;12.57;11.87;;;7.10;10.10;;;;;;5032210;28;20201;-71
2022/04/20 01:48:19;;;;;;;13.77;12.87;;;7.00;10.10;;;;;;5030571;28;20209;-71
2022/04/20 01:53:30;;;;;;;12.55;11.95;;;7.00;10.50;;;;;;5071109;22;20372;-71
2022/04/20 01:55:55;;;;;;;12.43;11.77;;;6.90;10.50;;;;;;5072156;28;20701;-71
2022/04/20 01:58:21;;;;;;;12.30;11.60;;;6.90;10.50;;;;;;5071793;28;20192;-70
2022/04/20 02:00:47;;;;;;;12.27;11.67;;;6.80;11.10;;;;;;5072045;28;20190;-71
2022/04/20 02:03:13;;;;;;;13.37;12.60;;;6.80;11.00;;;;;;5054121;28;20677;-71
2022/04/20 02:05:39;;;;;;;12.93;12.20;;;6.70;10.70;;;;;;5053040;28;20830;-71
2022/04/20 02:08:05;;;;;;;12.80;12.20;;;6.70;10.80;;;;;;5052157;28;20423;-71
2022/04/20 02:10:30;;;;;;;13.10;12.40;;;6.70;10.90;;;;;;5052472;28;20172;-71
2022/04/20 02:12:56;;;;;;;12.53;11.90;;;6.70;10.80;;;;;;5051979;28;20226;-71
2022/04/20 02:15:21;;;;;;;12.80;12.20;;;6.60;11.00;;;;;;5051855;28;20633;-71
2022/04/20 02:17:48;;;;;;;12.53;12.03;;;6.50;10.90;;;;;;5051765;28;20186;-70
2022/04/20 02:20:14;;;;;;;21.45;13.93;;;6.50;10.90;;;;;;5051870;28;20175;-70
2022/04/20 02:22:39;;;;;;;13.43;12.83;;;6.60;10.70;;;;;;5051991;28;20267;-70
2022/04/20 02:25:07;;;;;;;13.47;12.77;;;6.60;10.50;;;;;;5051813;28;20496;-71
2022/04/20 02:27:32;;;;;;;12.20;11.70;;;6.60;9.90;;;;;;5051890;28;20671;-71
2022/04/20 02:29:58;;;;;;;13.23;12.63;;;6.60;9.70;;;;;;5052139;28;20186;-71
2022/04/20 02:32:24;;;;;;;13.27;12.67;;;6.50;9.60;;;;;;5050915;28;20676;-71
2022/04/20 02:34:50;;;;;;;12.60;12.00;;;6.50;9.60;;;;;;5052069;28;20421;-71
2022/04/20 02:37:16;;;;;;;13.30;12.60;;;6.50;9.40;;;;;;5051757;28;20762;-71
2022/04/20 02:39:42;;;;;;;13.03;12.43;;;6.40;10.00;;;;;;5050606;28;20210;-71
2022/04/20 02:42:08;;;;;;;13.05;12.45;;;6.30;9.80;;;;;;5055741;28;20449;-71
2022/04/20 02:44:34;;;;;;;12.23;11.67;;;6.30;9.40;;;;;;5055911;28;20167;-71
2022/04/20 02:47:00;;;;;;;12.38;11.82;;;6.30;10.50;;;;;;5055668;28;20253;-71
2022/04/20 02:49:25;;;;;;;13.90;13.30;;;6.20;10.70;;;;;;5054286;28;20171;-71
2022/04/20 02:51:51;;;;;;;13.47;12.67;;;6.10;10.60;;;;;;5055654;28;20198;-71
2022/04/20 02:54:17;;;;;;;13.50;12.90;;;6.00;10.90;;;;;;5055697;28;20190;-71
2022/04/20 02:56:43;;;;;;;12.97;12.23;;;6.00;11.30;;;;;;5055668;28;20578;-71
2022/04/20 02:59:08;;;;;;;12.20;11.70;;;6.00;10.50;;;;;;5055361;28;20175;-71
2022/04/20 03:01:34;;;;;;;13.17;12.57;;;6.00;10.40;;;;;;5056006;28;20544;-72
2022/04/20 03:04:00;;;;;;;12.40;11.90;;;5.80;11.50;;;;;;5055568;28;20432;-72
2022/04/20 03:06:27;;;;;;;12.90;12.20;;;5.80;11.40;;;;;;5055409;28;20198;-72
2022/04/20 03:08:53;;;;;;;12.68;11.93;;;5.90;11.20;;;;;;5055091;28;20178;-72
2022/04/20 03:11:19;;;;;;;12.60;12.00;;;5.80;11.50;;;;;;5055363;28;20256;-72
2022/04/20 03:13:46;;;;;;;11.82;11.32;;;5.70;12.00;;;;;;5055166;28;20328;-72
2022/04/20 03:16:11;;;;;;;13.00;12.40;;;5.60;11.60;;;;;;5055092;28;20545;-72
2022/04/20 03:18:37;;;;;;;12.03;11.53;;;5.60;12.00;;;;;;5053576;28;20182;-72
2022/04/20 03:21:03;;;;;;;12.13;11.63;;;5.50;11.60;;;;;;5055240;28;20179;-72
2022/04/20 03:23:31;;;;;;;12.43;11.83;;;5.50;11.90;;;;;;5055262;28;20201;-72
2022/04/20 03:25:57;;;;;;;12.43;11.82;;;5.50;11.90;;;;;;5054962;28;20202;-72
2022/04/20 03:28:23;;;;;;;12.97;12.37;;;5.60;12.00;;;;;;5053340;28;20175;-72
2022/04/20 03:30:49;;;;;;;12.00;11.50;;;5.60;12.00;;;;;;5056779;28;20190;-72
2022/04/20 03:33:15;;;;;;;12.37;11.80;;;5.60;12.00;;;;;;5074539;28;20201;-72
2022/04/20 03:35:42;;;;;;;11.80;11.30;;;5.50;11.90;;;;;;5074697;28;20408;-72
2022/04/20 03:38:08;;;;;;;11.82;11.32;;;5.50;11.90;;;;;;5074352;28;20404;-72
2022/04/20 03:40:34;;;;;;;12.20;11.55;;;5.50;11.90;;;;;;5074525;28;20592;-72
2022/04/20 03:43:00;;;;;;;12.07;11.47;;;5.50;11.90;;;;;;5074581;28;20190;-72
2022/04/20 03:45:26;;;;;;;12.43;11.73;;;5.50;12.30;;;;;;5074813;28;20420;-72
2022/04/20 03:47:51;;;;;;;12.40;11.90;;;5.50;12.40;;;;;;5074587;28;20166;-72
2022/04/20 03:50:17;;;;;;;11.17;10.67;;;5.40;12.90;;;;;;5074879;28;20216;-72
2022/04/20 03:52:43;;;;;;;12.68;12.07;;;5.40;13.00;;;;;;5073278;28;20583;-72
2022/04/20 03:55:09;;;;;;;12.50;11.90;;;5.40;12.30;;;;;;5074734;28;20181;-72
2022/04/20 03:57:34;;;;;;;11.63;10.93;;;5.30;13.00;;;;;;5074367;28;20174;-72
2022/04/20 04:00:00;;;;;;;12.77;12.10;;;5.20;13.20;;;;;;5074383;28;20440;-73
2022/04/20 04:02:26;;;;;;;11.53;11.03;;;5.10;13.30;;;;;;5074623;28;20827;-71
2022/04/20 04:04:51;;;;;;;11.13;10.63;;;5.00;13.30;;;;;;5074504;28;20473;-71
2022/04/20 04:07:17;;;;;;;11.33;10.60;;;4.70;14.30;;;;;;5073824;28;20208;-72
2022/04/20 04:09:42;;;;;;;11.30;10.70;;;4.60;14.60;;;;;;5074182;28;20260;-72
2022/04/20 04:12:09;;;;;;;11.97;11.27;;;4.60;14.70;;;;;;5073919;28;20205;-70
2022/04/20 04:14:39;;;;;;;10.52;10.10;;;4.60;15.00;;;;;;5074022;28;20578;-70
2022/04/20 04:17:05;;;;;;;11.20;10.65;;;4.60;14.10;;;;;;5074202;28;20494;-71
2022/04/20 04:19:30;;;;;;;12.00;11.40;;;4.60;14.10;;;;;;5073437;28;20193;-71
2022/04/20 04:21:56;;;;;;;11.83;11.33;;;4.60;14.00;;;;;;5073720;28;20430;-71
2022/04/20 04:24:37;;;;;;;11.10;10.60;;;4.60;14.00;;;;;;5073780;28;20252;-71
2022/04/20 04:27:08;;;;;;;11.07;10.57;;;4.50;14.40;;;;;;5073780;28;20640;-71
2022/04/20 04:29:34;;;;;;;11.15;10.63;;;4.50;14.60;;;;;;5073852;28;20480;-71
2022/04/20 04:32:01;;;;;;;10.93;10.43;;;4.60;14.30;;;;;;5073597;28;20180;-71
2022/04/20 04:34:27;;;;;;;10.55;10.05;;;4.50;14.70;;;;;;5073355;28;20177;-71
2022/04/20 04:36:54;;;;;;;10.35;9.95;;;4.50;14.30;;;;;;5073480;28;20592;-71
2022/04/20 04:39:21;;;;;;;10.82;10.30;;;4.50;14.60;;;;;;5073234;28;20166;-72
2022/04/20 04:41:48;;;;;;;10.70;10.20;;;4.40;15.10;;;;;;5073356;28;20253;-72
2022/04/20 04:44:14;;;;;;;11.10;10.43;;;4.40;15.40;;;;;;5073568;28;20181;-72
2022/04/20 04:49:24;;;;;;;10.43;9.93;;;4.60;15.20;;;;;;5073554;28;20224;-70
2022/04/20 04:51:49;;;;;;;10.70;10.03;;;4.50;15.60;;;;;;5072952;28;20185;-69
2022/04/20 04:54:15;;;;;;;10.57;10.00;;;4.50;15.60;;;;;;5072877;28;20189;-69
2022/04/20 04:56:41;;;;;;;10.67;10.10;;;4.60;15.60;;;;;;5073001;28;20174;-70
2022/04/20 04:59:06;;;;;;;11.10;10.43;;;4.60;15.10;;;;;;5072865;28;20408;-70
2022/04/20 05:01:32;;;;;;;9.97;9.57;;;4.70;14.60;;;;;;5072858;28;20209;-69
2022/04/20 05:03:58;;;;;;;10.97;10.37;;;4.70;15.00;;;;;;5073040;28;20288;-70
2022/04/20 05:06:23;;;;;;;11.20;10.60;;;4.70;14.50;;;;;;5072867;28;20201;-72
2022/04/20 05:08:49;;;;;;;11.60;11.00;;;4.70;14.70;;;;;;5072701;28;20417;-70
2022/04/20 05:11:14;;;;;;;10.40;9.90;;;4.80;14.90;;;;;;5071880;28;20580;-69
2022/04/20 05:13:40;;;;;;;11.43;10.83;;;4.80;15.10;;;;;;5072961;28;20189;-69
2022/04/20 05:16:06;;;;;;;11.17;10.47;;;4.90;14.90;;;;;;5072869;28;20541;-70
2022/04/20 05:18:31;;;;;;;10.70;10.13;;;4.90;15.00;;;;;;5072486;28;20628;-69
2022/04/20 05:20:57;;;;;;;10.57;9.77;;;4.90;15.10;;;;;;5072660;28;20500;-69
2022/04/20 05:23:22;;;;;;;10.93;10.33;;;5.20;15.70;;;;;;5072573;28;20216;-69
2022/04/20 05:25:48;;;;;;;11.00;10.50;;;6.00;16.00;;;;;;5071093;28;20214;-69
2022/04/20 05:28:14;;;;;;;11.57;11.07;;;7.20;15.40;;;;;;5070844;28;20213;-69
2022/04/20 05:30:39;;;;;;;13.57;12.93;;;8.40;13.20;;;;;;5072165;28;20189;-70
2022/04/20 05:33:05;;;;;;;13.27;12.50;;;9.60;10.00;;;;;;5072320;28;20734;-70
2022/04/20 05:35:30;;;;;;;12.93;12.33;;;10.60;7.70;;;;;;5072273;28;20546;-70
2022/04/20 05:43:24;;;;;;;14.47;13.53;;;12.90;3.70;;;;;;5072265;28;20946;-71
2022/04/20 05:45:51;;;;;;;14.47;13.40;;;13.90;2.70;;;;;;5072110;28;20452;-71
2022/04/20 05:48:17;;;;;;;14.23;13.53;;;14.50;2.70;;;;;;5071848;28;20170;-71
2022/04/20 05:50:43;;;;;;;14.30;13.60;;;15.20;1.30;;;;;;5072012;28;20899;-71
2022/04/20 05:53:09;;;;;;;15.47;14.67;;;15.70;1.00;;;;;;5071881;28;20214;-71
2022/04/20 05:55:34;;;;;;;14.97;14.27;;;16.10;1.00;;;;;;5071735;28;20781;-71
2022/04/20 05:58:00;;;;;;;14.90;14.30;;;16.50;1.00;;;;;;5071804;28;20236;-71
2022/04/20 06:00:26;;;;;;;14.20;13.60;;;14.50;1.00;;;;;;5071907;28;20178;-71
2022/04/20 06:02:52;;;;;;;14.90;13.70;;;15.10;1.00;;;;;;5071947;28;20645;-71
2022/04/20 06:05:18;;;;;;;14.67;13.97;;;14.70;1.00;;;;;;5072027;28;20263;-70
2022/04/20 06:07:43;;;;;;;13.80;13.20;;;14.80;1.00;;;;;;5071806;28;20740;-71
2022/04/20 06:10:09;;;;;;;15.17;14.37;;;15.00;1.00;;;;;;5071775;28;20173;-69
2022/04/20 06:12:35;;;;;;;13.63;12.83;;;14.90;1.00;;;;;;5071704;28;20553;-69
2022/04/20 06:15:00;;;;;;;15.13;14.23;;;14.20;1.00;;;;;;5071155;28;20180;-69
2022/04/20 06:17:26;;;;;;;12.93;12.20;;;12.30;2.30;;;;;;5071444;28;20562;-69
2022/04/20 06:19:51;;;;;;;13.63;13.03;;;12.50;2.40;;;;;;5071695;28;20182;-69
2022/04/20 06:22:17;;;;;;;14.23;13.63;;;12.40;1.40;;;;;;5071588;28;20194;-70
2022/04/20 06:24:42;;;;;;;15.40;14.50;;;12.10;2.10;;;;;;5071540;28;20185;-69
2022/04/20 06:27:08;;;;;;;15.00;14.30;;;12.50;2.40;;;;;;5071462;28;20202;-69
2022/04/20 06:29:36;;;;;;;14.40;13.23;;;11.70;1.90;;;;;;5071499;28;20651;-70
2022/04/20 06:32:02;;;;;;;13.30;12.70;;;12.30;2.30;;;;;;5071574;28;20202;-70
2022/04/20 06:34:28;;;;;;;14.30;13.70;;;12.90;1.10;;;;;;5071643;28;20836;-70
2022/04/20 06:36:53;;;;;;;14.57;13.77;;;12.80;1.00;;;;;;5071742;28;20443;-70
2022/04/20 06:39:19;;;;;;;13.53;13.00;;;13.00;1.20;;;;;;5071235;28;20600;-70
2022/04/20 06:41:44;;;;;;;13.57;12.90;;;13.20;1.00;;;;;;5071667;28;20189;-70
2022/04/20 06:44:10;;;;;;;15.23;14.43;;;14.20;1.00;;;;;;5071480;28;20205;-70
2022/04/20 06:46:38;;;;;;;14.93;14.23;;;15.00;1.00;;;;;;5071308;28;20204;-70
2022/04/20 06:49:03;;;;;;;16.03;15.10;;;14.40;1.00;;;;;;5071276;28;20176;-70
2022/04/20 06:58:31;;;;;;;15.13;14.43;;;14.70;1.00;;;;;;5071463;28;20419;-70
2022/04/20 06:59:42;;;;;;;13.30;12.73;;;16.00;1.00;;;;;;5071419;28;20445;-70
2022/04/20 07:02:09;;;;;;;14.10;13.50;;;17.10;1.00;;;;;;5069942;28;20439;-70
2022/04/20 07:04:34;;;;;;;13.90;13.20;;;17.40;1.00;;;;;;5071700;28;20229;-70
2022/04/20 07:07:00;;;;;;;15.10;14.30;;;17.70;1.00;;;;;;5071339;28;20509;-70
2022/04/20 07:09:25;;;;;;;14.30;13.70;;;18.20;1.00;;;;;;5071332;28;20738;-69
2022/04/20 07:11:51;;;;;;;14.13;13.63;;;18.60;1.00;;;;;;5071210;28;20261;-70
2022/04/20 07:14:16;;;;;;;13.80;12.97;;;19.20;1.00;;;;;;5071288;28;20509;-70
2022/04/20 07:16:42;;;;;;;14.73;14.13;;;19.60;1.00;;;;;;5071144;28;20185;-71
2022/04/20 07:19:07;;;;;;;13.50;13.00;;;20.00;1.00;;;;;;5071015;28;20174;-72
2022/04/20 07:21:33;;;;;;;14.00;13.33;;;19.00;1.00;;;;;;5071248;28;20174;-73
2022/04/20 07:23:59;;;;;;;13.43;12.83;;;19.20;1.00;;;;;;5071322;28;20194;-70
2022/04/20 07:26:26;;;;;;;13.17;12.57;;;19.60;1.00;;;;;;5072127;28;20578;-71
2022/04/20 07:28:51;;;;;;;14.50;13.90;;;19.80;1.00;;;;;;5074541;28;20580;-71
2022/04/20 07:31:17;;;;;;;14.50;13.80;;;19.60;1.00;;;;;;5074507;28;20416;-71
2022/04/20 07:33:43;;;;;;;13.73;13.13;;;19.50;1.00;;;;;;5074447;28;20247;-71
2022/04/20 07:36:08;;;;;;;14.27;13.67;;;19.50;1.00;;;;;;5074240;28;20170;-71
2022/04/20 07:38:34;;;;;;;14.80;14.00;;;19.50;1.00;;;;;;5074145;28;20297;-71
2022/04/20 07:41:00;;;;;;;14.10;13.50;;;19.30;1.00;;;;;;5074526;28;20181;-71
2022/04/20 07:43:25;;;;;;;13.63;13.13;;;19.40;1.00;;;;;;5074257;28;20247;-71
2022/04/20 07:45:51;;;;;;;13.80;13.20;;;19.20;1.00;;;;;;5074253;28;20463;-70
2022/04/20 07:48:16;;;;;;;13.90;13.20;;;17.80;1.00;;;;;;5074038;28;20261;-70
2022/04/20 07:50:42;;;;;;;14.77;13.57;;;17.10;1.00;;;;;;5073969;28;20183;-70
2022/04/20 07:53:07;;;;;;;13.20;12.70;;;17.10;1.00;;;;;;5096210;22;20286;-70
2022/04/20 07:55:37;;;;;;;13.73;13.13;;;17.40;1.00;;;;;;5074702;28;20316;-69
2022/04/20 07:58:03;;;;;;;13.80;13.30;;;17.90;1.00;;;;;;5072609;28;20166;-70
2022/04/20 08:00:29;;;;;;;14.23;13.63;;;17.90;1.00;;;;;;5071622;28;20411;-70
2022/04/20 08:03:27;;;;;;;14.50;13.80;;;17.50;1.00;;;;;;5062360;28;20531;-71
2022/04/20 08:05:55;;;;;;;13.73;13.13;;;17.20;1.00;;;;;;5026309;28;20695;-70
2022/04/20 08:08:23;;;;;;;13.87;13.27;;;17.50;1.00;;;;;;5055196;28;20437;-69
2022/04/20 08:10:49;;;;;;;14.80;14.10;;;16.90;1.00;;;;;;5065666;28;20499;-70
2022/04/20 08:16:00;;;;;;;14.10;13.50;;;15.60;1.00;;;;;;5069809;28;20462;-69
2022/04/20 08:18:26;;;;;;;14.40;13.80;;;15.70;1.00;;;;;;5069847;28;20468;-71
2022/04/20 08:20:52;;;;;;;14.70;13.80;;;16.10;1.00;;;;;;5066327;28;20197;-71
2022/04/20 08:23:19;;;;;;;14.63;14.03;;;16.30;1.00;;;;;;5064946;28;20459;-70
2022/04/20 08:25:45;;;;;;;13.80;13.17;;;16.60;1.00;;;;;;5069712;28;20582;-69
2022/04/20 08:28:12;;;;;;;14.90;14.20;;;16.90;1.00;;;;;;5066243;28;20447;-69
2022/04/20 08:30:39;;;;;;;14.43;13.83;;;17.10;1.00;;;;;;5050973;28;21052;-69
2022/04/20 08:33:07;;;;;;;14.10;13.50;;;17.20;1.00;;;;;;5058645;28;20837;-70
2022/04/20 08:35:37;;;;;;;14.23;13.43;;;17.00;1.00;;;;;;5055748;28;21221;-69
2022/04/20 08:38:04;;;;;;;13.90;12.80;;;16.90;1.00;;;;;;5063932;28;20440;-69
2022/04/20 08:40:31;;;;;;;13.73;13.23;;;16.80;1.00;;;;;;5068157;28;20423;-68
2022/04/20 08:43:01;;;;;;;14.43;13.53;;;16.40;1.00;;;;;;5067993;28;20452;-69
2022/04/20 08:45:28;;;;;;;15.63;14.80;;;16.10;1.00;;;;;;5067767;28;20534;-69
2022/04/20 08:47:56;;;;;;;13.80;13.20;;;15.80;1.00;;;;;;5054329;28;20578;-68
2022/04/20 08:50:22;;;;;;;14.70;13.90;;;15.10;1.00;;;;;;5047111;28;20455;-68
2022/04/20 08:52:50;;;;;;;14.23;13.57;;;14.50;1.00;;;;;;5048742;28;20453;-71
2022/04/20 08:55:18;;;;;;;14.80;14.20;;;14.10;1.00;;;;;;5047705;28;20936;-69
2022/04/20 08:57:45;;;;;;;14.57;13.93;;;14.10;1.00;;;;;;5048415;28;20434;-69
2022/04/20 09:00:23;;;;;;;14.53;13.93;;;13.90;1.00;;;;;;5048025;28;20425;-72
2022/04/20 09:02:55;;;;;;;14.00;13.37;;;13.10;1.00;;;;;;5063755;28;20820;-70
2022/04/20 09:05:21;;;;;;;14.93;14.30;;;13.20;1.00;;;;;;5068885;28;20431;-69
2022/04/20 09:07:47;;;;;;;15.20;14.40;;;13.40;1.00;;;;;;5068170;28;20427;-70
2022/04/20 09:10:13;;;;;;;15.30;14.40;;;13.50;1.00;;;;;;5068227;28;20421;-71
2022/04/20 09:12:43;;;;;;;14.40;13.70;;;13.50;1.00;;;;;;5068981;28;20197;-72
2022/04/20 09:15:09;;;;;;;13.70;13.10;;;13.50;1.00;;;;;;5068744;28;20205;-71
2022/04/20 09:17:46;;;;;;;14.10;13.40;;;13.50;1.00;;;;;;5068226;28;20932;-70
2022/04/20 09:20:17;;;;;;;13.97;13.30;;;12.60;1.00;;;;;;5067979;28;20423;-69
2022/04/20 09:23:00;;;;;;;13.63;13.03;;;12.30;1.00;;;;;;5068934;28;20446;-70
2022/04/20 09:25:40;;;;;;;14.30;13.30;;;12.20;1.00;;;;;;5068128;28;20423;-70
2022/04/20 09:28:09;;;;;;;14.83;13.90;;;12.20;1.00;;;;;;5066497;28;20443;-71
2022/04/20 09:30:42;;;;;;;15.33;14.43;;;12.20;1.00;;;;;;5066252;28;20444;-70
2022/04/20 09:33:10;;;;;;;13.87;13.27;;;11.60;1.00;;;;;;5068475;28;20830;-70
2022/04/20 09:35:50;;;;;;;14.77;14.07;;;11.60;1.00;;;;;;5068463;28;20728;-70
2022/04/20 09:38:21;;;;;;;14.90;13.90;;;11.50;1.00;;;;;;5068562;28;20426;-71
2022/04/20 09:40:47;;;;;;;14.10;13.20;;;11.60;1.00;;;;;;5068117;28;20931;-70
2022/04/20 09:43:15;;;;;;;13.80;13.10;;;11.30;1.60;;;;;;5067761;28;20437;-70
2022/04/20 09:45:41;;;;;;;14.03;12.57;;;11.60;1.80;;;;;;5068690;28;20833;-70
2022/04/20 09:51:34;;;;;;;13.70;12.70;;;11.30;1.30;;;;;;5069718;28;20781;-71
2022/04/20 09:54:00;;;;;;;14.37;13.67;;;11.50;1.60;;;;;;5070366;28;20485;-70
2022/04/20 09:56:27;;;;;;;14.03;13.33;;;11.70;1.20;;;;;;5073005;28;20861;-69
2022/04/20 09:59:03;;;;;;;14.00;13.40;;;11.80;1.60;;;;;;5071696;28;20189;-69
2022/04/20 10:01:34;;;;;;;15.07;14.27;;;11.70;1.40;;;;;;5071890;28;20466;-69
2022/04/20 10:04:02;;;;;;;14.13;13.43;;;11.80;1.20;;;;;;5071880;28;20988;-70
2022/04/20 10:06:29;;;;;;;15.33;14.43;;;12.00;1.10;;;;;;5071773;28;20462;-69
2022/04/20 10:08:55;;;;;;;14.77;14.00;;;12.20;1.00;;;;;;5071585;28;20423;-69
2022/04/20 10:11:22;;;;;;;14.20;13.50;;;12.40;1.00;;;;;;5070415;28;20453;-71
2022/04/20 10:16:05;;;;;;;14.17;13.47;;;12.40;1.00;;;;;;5071526;28;20225;-70
2022/04/20 10:16:38;;;;;;;14.67;13.97;;;12.30;1.00;;;;;;5071634;28;20451;-70
2022/04/20 10:19:07;;;;;;;14.53;13.40;;;12.40;1.00;;;;;;5071575;28;20417;-71
2022/04/20 10:21:42;;;;;;;13.83;13.13;;;12.30;1.00;;;;;;5071758;28;20416;-69
2022/04/20 10:24:13;;;;;;;13.13;12.43;;;12.50;1.00;;;;;;5072145;28;20438;-70
2022/04/20 10:26:39;;;;;;;13.80;13.10;;;12.50;1.00;;;;;;5070257;28;20464;-70
2022/04/20 10:29:27;;;;;;;13.60;13.00;;;12.10;1.00;;;;;;5070422;28;20459;-69
2022/04/20 10:32:28;;;;;;;14.50;13.80;;;12.10;1.00;;;;;;5071631;28;20434;-70
2022/04/20 10:34:54;;;;;;;13.53;12.93;;;12.10;1.00;;;;;;5062655;28;20781;-71
2022/04/20 10:37:25;;;;;;;13.73;13.13;;;12.20;1.00;;;;;;5071233;28;20423;-70
2022/04/20 10:39:52;;;;;;;14.33;13.67;;;12.20;1.00;;;;;;5071522;28;20443;-71
2022/04/20 10:42:18;;;;;;;14.93;14.10;;;12.20;1.00;;;;;;5071539;28;20449;-71
2022/04/20 10:44:59;;;;;;;12.80;12.30;;;12.20;1.00;;;;;;5070277;28;20507;-71
2022/04/20 10:47:36;;;;;;;14.00;13.23;;;12.50;1.00;;;;;;5069796;28;20459;-70
2022/04/20 10:50:22;;;;;;;13.70;13.20;;;12.80;1.00;;;;;;5071420;28;20419;-70
2022/04/20 10:52:57;;;;;;;15.07;14.07;;;13.10;1.00;;;;;;5069825;28;20440;-69
2022/04/20 10:55:36;;;;;;;13.90;13.30;;;13.30;1.00;;;;;;5071423;28;20419;-70
2022/04/20 10:58:16;;;;;;;13.47;12.87;;;13.50;1.00;;;;;;5071196;28;20515;-70
2022/04/20 11:00:42;;;;;;;13.53;12.83;;;13.60;1.00;;;;;;5071593;28;20404;-69
2022/04/20 11:03:10;;;;;;;14.90;14.17;;;13.70;1.00;;;;;;5073951;28;20439;-71
2022/04/20 11:05:57;;;;;;;14.33;13.63;;;13.70;1.00;;;;;;5075255;28;20928;-69
2022/04/20 11:08:24;;;;;;;15.07;14.47;;;13.80;1.00;;;;;;5073545;28;20423;-70
2022/04/20 11:19:49;;;;;;;15.13;13.90;;;13.40;1.00;;;;;;5075357;28;20415;-69
2022/04/20 11:22:15;;;;;;;13.50;13.00;;;13.40;1.00;;;;;;5075274;28;20477;-69
2022/04/20 11:24:41;;;;;;;15.10;14.00;;;13.60;1.00;;;;;;5075215;28;20878;-68
2022/04/20 11:27:08;;;;;;;13.80;13.10;;;13.80;1.00;;;;;;5074751;28;20314;-68
2022/04/20 11:29:34;;;;;;;14.23;13.53;;;13.90;1.00;;;;;;5074697;28;20462;-68
2022/04/20 11:32:02;;;;;;;14.20;13.50;;;14.00;1.00;;;;;;5074879;28;20947;-68
2022/04/20 11:34:31;;;;;;;13.67;13.13;;;14.10;1.00;;;;;;5074652;28;20201;-68
2022/04/20 11:37:02;;;;;;;14.80;13.80;;;14.00;1.00;;;;;;5074702;28;20411;-68
2022/04/20 11:39:30;;;;;;;13.93;13.20;;;13.70;1.00;;;;;;5074419;28;20435;-68
2022/04/20 11:42:01;;;;;;;13.50;12.90;;;13.90;1.00;;;;;;5074693;28;20504;-68
2022/04/20 11:44:27;;;;;;;15.20;14.50;;;14.10;1.00;;;;;;5074435;28;20514;-69
2022/04/20 11:46:58;;;;;;;14.47;13.77;;;14.20;1.00;;;;;;5074254;28;20479;-69
2022/04/20 11:49:36;;;;;;;13.20;12.50;;;13.80;1.00;;;;;;5074451;28;20420;-69
2022/04/20 11:52:06;;;;;;;13.97;13.37;;;13.70;1.00;;;;;;5074409;28;20495;-68
2022/04/20 11:54:33;;;;;;;14.33;13.53;;;13.90;1.00;;;;;;5074156;28;20452;-67
2022/04/20 11:56:58;;;;;;;14.23;13.53;;;14.20;1.00;;;;;;5074624;28;20921;-67
2022/04/20 11:59:24;;;;;;;14.73;14.03;;;14.30;1.00;;;;;;5074052;28;20443;-69
2022/04/20 12:01:50;;;;;;;14.37;13.77;;;14.40;1.00;;;;;;5074063;28;20182;-67
2022/04/20 12:04:18;;;;;;;15.70;15.00;;;14.50;1.00;;;;;;5074044;28;20428;-69
2022/04/20 12:06:55;;;;;;;14.53;13.87;;;14.20;1.00;;;;;;5074072;28;20486;-69
2022/04/20 12:09:22;;;;;;;14.90;14.10;;;14.20;1.00;;;;;;5073992;28;20439;-69
2022/04/20 12:11:54;;;;;;;14.23;13.57;;;14.20;1.00;;;;;;5074602;28;20409;-68
2022/04/20 12:14:21;;;;;;;14.30;13.70;;;13.80;1.00;;;;;;5073041;28;20937;-67
2022/04/20 12:16:48;;;;;;;14.00;13.40;;;13.60;1.00;;;;;;5073949;28;20415;-67
2022/04/20 12:19:14;;;;;;;14.23;13.60;;;13.90;1.00;;;;;;5073607;28;20422;-68
2022/04/20 12:21:44;;;;;;;14.90;14.10;;;14.00;1.00;;;;;;5073751;28;20416;-68
2022/04/20 12:24:20;;;;;;;14.80;14.20;;;14.20;1.00;;;;;;5073678;28;20436;-68
2022/04/20 12:26:47;;;;;;;14.03;13.33;;;14.30;1.00;;;;;;5073597;28;20448;-69
2022/04/20 12:29:14;;;;;;;14.87;13.77;;;14.30;1.00;;;;;;5073303;28;20758;-68
2022/04/20 12:31:44;;;;;;;13.90;13.27;;;14.10;1.00;;;;;;5073518;28;20929;-70
2022/04/20 12:34:12;;;;;;;14.00;13.40;;;13.90;1.00;;;;;;5073558;28;20459;-69
2022/04/20 12:36:59;;;;;;;15.10;14.50;;;14.00;1.00;;;;;;5073431;28;20420;-68
2022/04/20 12:39:32;;;;;;;14.00;13.37;;;14.10;1.00;;;;;;5073283;28;20474;-70
2022/04/20 12:42:01;;;;;;;14.33;13.70;;;14.10;1.00;;;;;;5072013;28;20432;-70
2022/04/20 12:44:36;;;;;;;14.17;13.63;;;14.10;1.00;;;;;;5073437;28;20804;-70
2022/04/20 12:47:06;;;;;;;15.90;14.90;;;14.20;1.00;;;;;;5073364;28;20456;-70
2022/04/20 12:49:32;;;;;;;14.60;13.90;;;14.40;1.00;;;;;;5073255;28;20413;-71
2022/04/20 12:52:17;;;;;;;14.77;14.03;;;14.30;1.00;;;;;;5071811;28;20463;-70
2022/04/20 12:54:56;;;;;;;13.73;13.13;;;14.60;1.00;;;;;;5073140;28;20191;-71
2022/04/20 13:03:03;;;;;;;14.70;14.10;;;14.80;1.00;;;;;;5073358;28;20462;-74
2022/04/20 13:05:30;;;;;;;13.70;13.10;;;14.40;1.00;;;;;;5072961;28;20792;-73
2022/04/20 13:07:56;;;;;;;14.70;14.00;;;14.60;1.00;;;;;;5073099;28;20802;-74
2022/04/20 13:10:22;;;;;;;15.20;14.40;;;14.90;1.00;;;;;;5071939;28;20441;-74
2022/04/20 13:12:49;;;;;;;15.50;14.80;;;15.00;1.00;;;;;;5073100;28;20446;-74
2022/04/20 13:15:15;;;;;;;15.17;14.13;;;15.10;1.00;;;;;;5072868;28;20420;-74
2022/04/20 13:17:40;;;;;;;15.30;14.70;;;15.00;1.00;;;;;;5072456;28;20472;-73